Time;durP1;ratioP1;P1;durP2;ratioP2;P2;SDS_P1;SDS_P2;PMS_P1;PMS_P2;Temp;Humidity;BMP_temperature;BMP_pressure;BME280_temperature;BME280_humidity;BME280_pressure;Samples;Min_cycle;Max_cycle;Signal;HPM_P1;HPM_P2
2023/08/02 00:00:08;;;;;;;2.20;1.67;;;15.90;99.90;;;;;;5119155;28;20414;-42
2023/08/02 00:02:33;;;;;;;2.43;1.87;;;15.90;1.00;;;;;;5119459;28;20250;-44
2023/08/02 00:04:59;;;;;;;3.63;2.50;;;15.80;1.00;;;;;;5119270;28;20871;-44
2023/08/02 00:07:24;;;;;;;4.53;2.17;;;15.90;1.00;;;;;;5119518;28;20263;-42
2023/08/02 00:09:50;;;;;;;3.43;2.40;;;15.90;1.00;;;;;;5118880;28;20191;-45
2023/08/02 00:12:15;;;;;;;3.07;2.20;;;16.00;1.00;;;;;;5118496;28;20230;-42
2023/08/02 00:14:41;;;;;;;3.93;2.77;;;15.90;1.00;;;;;;5118456;28;20199;-42
2023/08/02 00:17:07;;;;;;;5.40;2.47;;;15.90;1.00;;;;;;5119036;28;20275;-44
2023/08/02 00:19:32;;;;;;;2.90;1.70;;;15.90;1.00;;;;;;5118885;28;20298;-44
2023/08/02 00:21:58;;;;;;;5.03;2.97;;;15.90;1.00;;;;;;5118711;28;20510;-43
2023/08/02 00:24:23;;;;;;;3.70;2.27;;;15.90;45.50;;;;;;5118655;28;20247;-43
2023/08/02 00:26:49;;;;;;;2.63;2.00;;;15.90;99.90;;;;;;5118694;28;20273;-44
2023/08/02 00:29:15;;;;;;;5.37;2.67;;;15.90;99.90;;;;;;5118386;28;20175;-42
2023/08/02 00:31:40;;;;;;;3.40;2.50;;;15.90;99.90;;;;;;5119433;28;20581;-43
2023/08/02 00:34:06;;;;;;;3.40;2.30;;;15.80;99.90;;;;;;5117715;28;20191;-45
2023/08/02 00:36:31;;;;;;;3.77;2.30;;;15.80;99.90;;;;;;5117122;28;20234;-42
2023/08/02 00:38:57;;;;;;;4.00;2.50;;;15.80;99.90;;;;;;5117943;28;20287;-43
2023/08/02 00:41:22;;;;;;;3.03;2.20;;;15.70;99.90;;;;;;5117544;28;20584;-43
2023/08/02 00:43:48;;;;;;;5.07;2.00;;;15.70;99.90;;;;;;5117306;28;20215;-43
2023/08/02 00:46:16;;;;;;;3.90;2.20;;;15.70;1.00;;;;;;5099248;28;20187;-43
2023/08/02 00:48:42;;;;;;;3.27;2.47;;;15.60;1.00;;;;;;5099379;28;20180;-43
2023/08/02 00:51:14;;;;;;;5.57;2.33;;;15.60;99.90;;;;;;5118709;28;20432;-43
2023/08/02 00:53:39;;;;;;;3.33;2.60;;;15.50;1.00;;;;;;5100799;28;20406;-43
2023/08/02 00:56:05;;;;;;;4.50;2.30;;;15.50;1.00;;;;;;5101140;28;20440;-45
2023/08/02 00:58:32;;;;;;;4.63;2.40;;;15.40;1.00;;;;;;5119333;28;20209;-42
2023/08/02 01:01:06;;;;;;;4.67;3.07;;;15.30;1.00;;;;;;5119183;28;20442;-44
2023/08/02 01:03:36;;;;;;;3.97;2.60;;;15.30;12.40;;;;;;5117759;28;20498;-46
2023/08/02 01:06:18;;;;;;;7.13;2.80;;;15.20;99.90;;;;;;5118693;28;20413;-44
2023/08/02 01:08:47;;;;;;;4.00;2.40;;;15.20;99.90;;;;;;5118000;28;20443;-46
2023/08/02 01:11:35;;;;;;;8.50;2.30;;;15.20;99.90;;;;;;5117858;28;20873;-42
2023/08/02 01:14:05;;;;;;;4.47;3.00;;;15.10;99.90;;;;;;5100051;28;20518;-44
2023/08/02 01:16:32;;;;;;;4.73;2.47;;;15.10;99.90;;;;;;5118456;28;20494;-42
2023/08/02 01:19:07;;;;;;;4.97;3.23;;;15.10;99.90;;;;;;5100654;28;20441;-43
2023/08/02 01:21:33;;;;;;;4.77;2.30;;;15.00;99.90;;;;;;5118999;28;20429;-43
2023/08/02 01:23:58;;;;;;;4.60;2.60;;;15.00;99.90;;;;;;5119070;28;20804;-45
2023/08/02 01:26:24;;;;;;;3.07;2.20;;;15.00;99.90;;;;;;5100100;28;20188;-44
2023/08/02 01:28:52;;;;;;;5.30;2.60;;;15.00;99.90;;;;;;5100831;28;20175;-45
2023/08/02 01:31:18;;;;;;;2.93;2.17;;;14.90;99.90;;;;;;5119192;28;20426;-43
2023/08/02 01:33:50;;;;;;;3.80;2.50;;;14.80;1.00;;;;;;5117776;28;20803;-45
2023/08/02 01:36:16;;;;;;;4.20;2.77;;;14.80;1.00;;;;;;5117304;28;20508;-45
2023/08/02 01:38:42;;;;;;;4.30;2.70;;;14.80;1.00;;;;;;5117543;28;20421;-43
2023/08/02 01:41:07;;;;;;;5.10;2.83;;;14.80;1.00;;;;;;5117003;28;20438;-44
2023/08/02 01:43:33;;;;;;;3.37;2.60;;;14.70;1.00;;;;;;5117039;28;20303;-44
2023/08/02 01:45:59;;;;;;;3.70;2.53;;;14.70;1.00;;;;;;5117425;28;20188;-43
2023/08/02 01:48:26;;;;;;;4.83;2.20;;;14.70;1.00;;;;;;5117659;28;20187;-43
2023/08/02 01:50:52;;;;;;;3.73;2.70;;;14.60;1.00;;;;;;5118088;28;20187;-43
2023/08/02 01:53:17;;;;;;;4.40;2.80;;;14.60;1.00;;;;;;5118506;28;20504;-43
2023/08/02 01:55:43;;;;;;;3.43;2.83;;;14.50;1.00;;;;;;5118095;28;20441;-43
2023/08/02 01:58:09;;;;;;;3.53;2.77;;;14.50;1.00;;;;;;5118285;28;20268;-42
2023/08/02 02:00:35;;;;;;;3.60;2.80;;;14.50;1.00;;;;;;5118097;28;20429;-45
2023/08/02 02:03:00;;;;;;;5.33;2.20;;;14.50;1.00;;;;;;5117432;28;20498;-45
2023/08/02 02:05:26;;;;;;;3.53;2.60;;;14.50;1.00;;;;;;5117312;28;20844;-45
2023/08/02 02:07:51;;;;;;;4.00;2.73;;;14.40;1.00;;;;;;5118228;28;20183;-43
2023/08/02 02:10:17;;;;;;;3.67;2.77;;;14.50;1.00;;;;;;5117193;28;20535;-46
2023/08/02 02:12:42;;;;;;;2.67;2.20;;;14.50;1.00;;;;;;5117447;28;20271;-44
2023/08/02 02:15:08;;;;;;;4.07;2.30;;;14.50;1.00;;;;;;5116513;28;20222;-42
2023/08/02 02:17:34;;;;;;;2.90;2.60;;;14.60;1.00;;;;;;5099938;28;20191;-44
2023/08/02 02:19:59;;;;;;;3.83;2.20;;;14.60;1.00;;;;;;5117106;28;20283;-42
2023/08/02 02:22:25;;;;;;;4.00;2.70;;;14.50;1.00;;;;;;5117808;28;20306;-46
2023/08/02 02:24:51;;;;;;;4.60;2.80;;;14.50;1.00;;;;;;5116761;28;20211;-43
2023/08/02 02:27:16;;;;;;;3.00;2.70;;;14.50;1.00;;;;;;5117386;28;20252;-43
2023/08/02 02:29:42;;;;;;;3.43;2.23;;;14.50;1.00;;;;;;5117773;28;20176;-42
2023/08/02 02:32:10;;;;;;;2.63;2.30;;;14.60;1.00;;;;;;5118070;28;20188;-46
2023/08/02 02:34:36;;;;;;;5.40;2.33;;;14.70;1.00;;;;;;5117812;28;20223;-47
2023/08/02 02:37:02;;;;;;;3.10;2.23;;;14.60;1.00;;;;;;5117375;28;20425;-46
2023/08/02 02:39:29;;;;;;;6.47;2.47;;;14.60;1.00;;;;;;5117187;28;20449;-44
2023/08/02 02:41:55;;;;;;;3.90;2.70;;;14.70;1.00;;;;;;5117072;28;20410;-43
2023/08/02 02:44:21;;;;;;;3.00;2.40;;;14.60;1.00;;;;;;5117388;28;20437;-42
2023/08/02 02:46:46;;;;;;;3.00;2.50;;;14.70;1.00;;;;;;5117840;28;20687;-47
2023/08/02 02:49:12;;;;;;;4.07;2.60;;;14.60;1.00;;;;;;5116110;28;20192;-43
2023/08/02 02:51:37;;;;;;;2.87;2.67;;;14.60;1.00;;;;;;5116445;28;20183;-43
2023/08/02 02:54:03;;;;;;;4.17;2.50;;;14.70;1.00;;;;;;5116534;28;20184;-44
2023/08/02 02:56:28;;;;;;;5.30;3.00;;;14.70;1.00;;;;;;5116249;28;20191;-43
2023/08/02 02:58:54;;;;;;;3.20;2.47;;;14.70;1.00;;;;;;5116020;28;20183;-43
2023/08/02 03:01:21;;;;;;;4.30;2.80;;;14.80;1.00;;;;;;5116238;28;20232;-43
2023/08/02 03:03:46;;;;;;;2.80;2.00;;;14.80;1.00;;;;;;5116766;28;20235;-45
2023/08/02 03:06:12;;;;;;;3.13;2.20;;;14.90;99.90;;;;;;5115188;28;20460;-43
2023/08/02 03:08:37;;;;;;;3.80;2.93;;;14.90;99.90;;;;;;5115362;28;20434;-44
2023/08/02 03:11:03;;;;;;;3.50;2.70;;;14.90;99.90;;;;;;5114676;28;20215;-43
2023/08/02 03:13:29;;;;;;;2.97;2.23;;;14.90;99.90;;;;;;5116165;28;20192;-46
2023/08/02 03:15:55;;;;;;;2.30;1.80;;;14.90;99.90;;;;;;5115428;28;20436;-45
2023/08/02 03:18:20;;;;;;;2.83;2.53;;;15.00;99.90;;;;;;5114661;28;20906;-45
2023/08/02 03:20:46;;;;;;;4.10;2.30;;;15.00;99.90;;;;;;5115226;28;20195;-42
2023/08/02 03:23:12;;;;;;;3.87;2.70;;;15.00;99.90;;;;;;5115879;28;20211;-42
2023/08/02 03:25:37;;;;;;;2.50;2.20;;;15.10;99.90;;;;;;5117629;28;20249;-44
2023/08/02 03:28:03;;;;;;;6.20;3.13;;;15.20;99.90;;;;;;5120732;28;20180;-43
2023/08/02 03:30:28;;;;;;;5.70;2.63;;;15.30;79.50;;;;;;5119675;28;20210;-44
2023/08/02 03:32:54;;;;;;;4.70;2.37;;;15.30;53.30;;;;;;5119482;28;20183;-44
2023/08/02 03:35:20;;;;;;;4.77;2.77;;;15.30;14.80;;;;;;5117755;28;20317;-43
2023/08/02 03:37:45;;;;;;;6.73;2.47;;;15.30;1.00;;;;;;5117566;28;20275;-44
2023/08/02 03:40:11;;;;;;;5.10;2.50;;;15.20;14.40;;;;;;5116953;28;20358;-45
2023/08/02 03:42:38;;;;;;;3.37;2.30;;;15.30;1.00;;;;;;5117709;28;20276;-43
2023/08/02 03:45:04;;;;;;;3.40;2.50;;;15.30;1.00;;;;;;5117362;28;20662;-45
2023/08/02 03:47:30;;;;;;;3.03;2.57;;;15.30;1.00;;;;;;5118937;28;20876;-45
2023/08/02 03:49:55;;;;;;;8.20;2.83;;;15.30;1.00;;;;;;5117057;28;20427;-43
2023/08/02 03:52:21;;;;;;;6.30;2.80;;;15.30;1.00;;;;;;5117600;28;20214;-44
2023/08/02 03:54:47;;;;;;;6.33;2.73;;;15.30;1.00;;;;;;5116427;28;20172;-45
2023/08/02 03:57:13;;;;;;;7.40;3.20;;;15.30;1.00;;;;;;5116440;28;20183;-42
2023/08/02 03:59:38;;;;;;;4.80;2.60;;;15.40;1.00;;;;;;5116999;28;20497;-43
2023/08/02 04:02:04;;;;;;;2.70;2.30;;;15.30;1.00;;;;;;5117193;28;20300;-43
2023/08/02 04:04:29;;;;;;;2.90;2.30;;;15.40;1.00;;;;;;5117472;28;20209;-43
2023/08/02 04:06:55;;;;;;;3.40;2.97;;;15.40;1.00;;;;;;5116725;28;20561;-44
2023/08/02 04:09:20;;;;;;;2.93;2.60;;;15.30;1.00;;;;;;5117686;28;20192;-43
2023/08/02 04:11:46;;;;;;;6.90;2.70;;;15.30;1.00;;;;;;5117443;28;20183;-44
2023/08/02 04:14:12;;;;;;;5.03;2.30;;;15.30;16.50;;;;;;5116191;28;20190;-43
2023/08/02 04:16:37;;;;;;;3.27;2.97;;;15.30;99.90;;;;;;5114876;28;20600;-45
2023/08/02 04:19:03;;;;;;;4.10;2.60;;;15.30;99.90;;;;;;5115448;28;20275;-43
2023/08/02 04:21:28;;;;;;;3.17;2.53;;;15.30;99.90;;;;;;5115545;28;20187;-43
2023/08/02 04:23:54;;;;;;;6.63;3.20;;;15.20;1.00;;;;;;5114830;28;20218;-43
2023/08/02 04:26:20;;;;;;;5.13;3.20;;;15.20;1.00;;;;;;5116410;28;20202;-42
2023/08/02 04:28:46;;;;;;;4.97;2.87;;;15.20;1.00;;;;;;5116798;28;20433;-43
2023/08/02 04:31:12;;;;;;;3.13;2.80;;;15.20;1.00;;;;;;5118521;28;20627;-45
2023/08/02 04:33:38;;;;;;;5.00;2.70;;;15.20;1.00;;;;;;5119242;28;20179;-42
2023/08/02 04:36:04;;;;;;;5.00;3.60;;;15.10;1.00;;;;;;5119100;28;20473;-44
2023/08/02 04:38:29;;;;;;;3.77;3.13;;;15.10;21.40;;;;;;5118038;28;20260;-43
2023/08/02 04:40:56;;;;;;;4.40;3.33;;;15.10;56.80;;;;;;5119034;28;20188;-42
2023/08/02 04:43:22;;;;;;;5.17;3.23;;;15.10;62.00;;;;;;5116666;28;20231;-42
2023/08/02 04:45:47;;;;;;;4.40;3.00;;;15.00;99.90;;;;;;5117125;28;20581;-42
2023/08/02 04:48:13;;;;;;;3.30;3.00;;;15.00;99.90;;;;;;5117071;28;20184;-43
2023/08/02 04:50:39;;;;;;;4.73;3.30;;;14.90;99.90;;;;;;5118077;28;20184;-44
2023/08/02 04:53:04;;;;;;;4.00;2.83;;;14.90;99.90;;;;;;5118098;28;20188;-46
2023/08/02 04:55:30;;;;;;;3.57;2.90;;;14.90;99.90;;;;;;5117570;28;20206;-45
2023/08/02 04:57:55;;;;;;;4.70;3.33;;;14.80;99.90;;;;;;5117459;28;20191;-44
2023/08/02 05:00:21;;;;;;;8.73;3.40;;;14.80;99.90;;;;;;5117774;28;20191;-47
2023/08/02 05:02:47;;;;;;;4.20;3.17;;;14.80;99.90;;;;;;5117590;28;20211;-43
2023/08/02 05:05:13;;;;;;;5.23;3.87;;;14.70;99.90;;;;;;5117544;28;20432;-44
2023/08/02 05:07:39;;;;;;;4.53;3.77;;;14.70;99.90;;;;;;5118053;28;20691;-44
2023/08/02 05:10:05;;;;;;;4.80;3.27;;;14.70;99.90;;;;;;5115757;28;20188;-44
2023/08/02 05:12:34;;;;;;;3.83;3.13;;;14.70;99.90;;;;;;5115667;28;20445;-44
2023/08/02 05:14:59;;;;;;;4.93;3.60;;;14.60;99.90;;;;;;5115686;28;20429;-45
2023/08/02 05:17:28;;;;;;;4.90;3.90;;;14.60;99.90;;;;;;5115444;28;21002;-42
2023/08/02 05:19:54;;;;;;;5.63;3.73;;;14.70;99.90;;;;;;5116194;28;20183;-43
2023/08/02 05:22:19;;;;;;;6.17;4.07;;;14.70;99.90;;;;;;5115905;28;20477;-43
2023/08/02 05:24:45;;;;;;;5.30;3.60;;;14.70;99.90;;;;;;5115588;28;20763;-44
2023/08/02 05:27:10;;;;;;;4.13;3.73;;;14.70;99.90;;;;;;5115956;28;20191;-43
2023/08/02 05:29:36;;;;;;;5.47;3.60;;;14.60;99.90;;;;;;5115163;28;20234;-46
2023/08/02 05:32:02;;;;;;;5.73;3.60;;;14.70;99.90;;;;;;5115237;28;20187;-42
2023/08/02 05:34:27;;;;;;;4.80;3.50;;;14.60;99.90;;;;;;5115825;28;20621;-45
2023/08/02 05:36:53;;;;;;;4.10;3.57;;;14.70;1.00;;;;;;5114493;28;20290;-45
2023/08/02 05:39:18;;;;;;;4.87;3.67;;;14.70;1.00;;;;;;5115092;28;20187;-44
2023/08/02 05:41:44;;;;;;;4.80;4.33;;;14.60;1.00;;;;;;5115231;28;20272;-44
2023/08/02 05:44:10;;;;;;;6.30;3.43;;;14.60;1.00;;;;;;5115272;28;20258;-43
2023/08/02 05:46:36;;;;;;;5.90;3.80;;;14.70;1.00;;;;;;5115063;28;20490;-42
2023/08/02 05:49:01;;;;;;;5.03;4.00;;;14.70;1.00;;;;;;5113792;28;20294;-45
2023/08/02 05:51:27;;;;;;;4.47;3.70;;;14.70;1.00;;;;;;5113048;28;20200;-42
2023/08/02 05:53:52;;;;;;;4.13;3.73;;;14.70;1.00;;;;;;5113378;28;20240;-44
2023/08/02 05:56:18;;;;;;;4.33;3.90;;;14.70;1.00;;;;;;5113029;28;20329;-48
2023/08/02 05:58:43;;;;;;;5.60;4.40;;;14.70;1.00;;;;;;5111931;28;20636;-44
2023/08/02 06:01:09;;;;;;;5.43;3.73;;;14.70;1.00;;;;;;5112018;28;20202;-46
2023/08/02 06:03:34;;;;;;;4.73;4.30;;;14.80;1.00;;;;;;5112443;28;20380;-44
2023/08/02 06:06:00;;;;;;;5.10;4.60;;;14.70;1.00;;;;;;5112498;28;20477;-46
2023/08/02 06:08:26;;;;;;;6.43;4.27;;;14.70;1.00;;;;;;5112895;28;20258;-44
2023/08/02 06:10:51;;;;;;;7.63;4.00;;;14.80;1.00;;;;;;5113301;28;20255;-47
2023/08/02 06:13:17;;;;;;;5.93;4.60;;;14.90;1.00;;;;;;5111734;28;20280;-45
2023/08/02 06:15:43;;;;;;;4.73;3.67;;;14.90;1.00;;;;;;5112510;28;20192;-45
2023/08/02 06:18:08;;;;;;;5.13;4.40;;;15.00;1.00;;;;;;5112050;28;20439;-45
2023/08/02 06:20:34;;;;;;;5.40;3.97;;;15.10;1.00;;;;;;5112705;28;20843;-45
2023/08/02 06:22:59;;;;;;;5.80;5.07;;;15.20;1.00;;;;;;5113355;28;20303;-46
2023/08/02 06:25:26;;;;;;;5.10;4.20;;;15.30;1.00;;;;;;5113151;28;20180;-47
2023/08/02 06:27:52;;;;;;;5.00;4.50;;;15.40;1.00;;;;;;5114120;28;20522;-45
2023/08/02 06:30:17;;;;;;;6.10;4.17;;;15.50;1.00;;;;;;5114285;28;20520;-47
2023/08/02 06:32:43;;;;;;;6.93;3.83;;;15.60;1.00;;;;;;5114826;28;20469;-45
2023/08/02 06:35:09;;;;;;;5.47;4.50;;;15.70;99.90;;;;;;5115630;28;20247;-44
2023/08/02 06:37:35;;;;;;;4.50;3.33;;;15.80;99.90;;;;;;5113867;28;20183;-44
2023/08/02 06:40:01;;;;;;;4.67;4.17;;;15.80;99.90;;;;;;5113854;28;20421;-43
2023/08/02 06:42:27;;;;;;;6.73;4.20;;;15.90;99.90;;;;;;5111889;28;20469;-44
2023/08/02 06:44:52;;;;;;;5.60;4.33;;;15.90;99.90;;;;;;5113567;28;20916;-44
2023/08/02 06:47:18;;;;;;;5.67;4.00;;;16.00;99.90;;;;;;5112750;28;20278;-45
2023/08/02 06:49:43;;;;;;;4.90;4.00;;;16.00;99.90;;;;;;5112402;28;20183;-44
2023/08/02 06:52:09;;;;;;;3.97;3.53;;;16.10;99.90;;;;;;5112111;28;20221;-44
2023/08/02 06:54:34;;;;;;;5.80;5.20;;;16.00;99.90;;;;;;5111803;28;20188;-47
2023/08/02 06:57:00;;;;;;;5.63;4.50;;;16.00;99.90;;;;;;5111945;28;20290;-43
2023/08/02 06:59:26;;;;;;;5.23;4.03;;;16.00;99.90;;;;;;5112476;28;20180;-42
2023/08/02 07:01:51;;;;;;;4.77;4.27;;;15.90;99.90;;;;;;5119692;28;20191;-43
2023/08/02 07:04:17;;;;;;;5.53;4.60;;;16.00;99.90;;;;;;5119941;28;20211;-45
2023/08/02 07:06:43;;;;;;;5.80;4.77;;;16.00;99.90;;;;;;5120035;28;20263;-45
2023/08/02 07:09:11;;;;;;;6.30;3.87;;;16.10;99.90;;;;;;5120005;28;20516;-44
2023/08/02 07:11:36;;;;;;;4.80;4.27;;;16.20;99.90;;;;;;5119984;28;20470;-42
2023/08/02 07:14:02;;;;;;;5.00;4.20;;;16.30;99.90;;;;;;5119759;28;20778;-45
2023/08/02 07:16:27;;;;;;;4.47;4.07;;;16.40;99.90;;;;;;5118884;28;20638;-43
2023/08/02 07:18:53;;;;;;;4.40;3.90;;;16.60;99.90;;;;;;5120199;28;20191;-43
2023/08/02 07:21:19;;;;;;;5.43;4.37;;;16.70;99.90;;;;;;5119719;28;20191;-42
2023/08/02 07:23:45;;;;;;;4.93;4.20;;;16.70;99.90;;;;;;5119031;28;20524;-45
2023/08/02 07:26:10;;;;;;;5.60;4.00;;;16.80;99.90;;;;;;5118582;28;20191;-46
2023/08/02 07:28:36;;;;;;;5.90;4.60;;;16.80;99.90;;;;;;5119516;28;20213;-44
2023/08/02 07:31:09;;;;;;;4.80;4.10;;;16.60;99.90;;;;;;5119071;28;20191;-45
2023/08/02 07:33:35;;;;;;;6.23;3.90;;;16.50;99.90;;;;;;5119674;28;20206;-43
2023/08/02 07:36:01;;;;;;;7.20;4.07;;;16.50;99.90;;;;;;5118477;28;20461;-45
2023/08/02 07:38:28;;;;;;;5.40;4.50;;;16.40;99.90;;;;;;5119901;28;20266;-44
2023/08/02 07:40:53;;;;;;;5.30;4.33;;;16.40;99.90;;;;;;5120512;28;20429;-44
2023/08/02 07:43:19;;;;;;;5.10;4.50;;;16.40;99.90;;;;;;5120344;28;20545;-44
2023/08/02 07:45:45;;;;;;;6.77;4.57;;;16.50;99.90;;;;;;5119836;28;20726;-44
2023/08/02 07:48:10;;;;;;;5.13;4.63;;;16.60;99.90;;;;;;5117370;28;20187;-44
2023/08/02 07:50:36;;;;;;;4.90;4.37;;;16.60;99.90;;;;;;5120153;28;20184;-44
2023/08/02 07:53:02;;;;;;;5.53;4.47;;;16.60;99.90;;;;;;5119397;28;20183;-44
2023/08/02 07:55:28;;;;;;;5.47;4.17;;;16.70;99.90;;;;;;5119101;28;20187;-47
2023/08/02 07:57:53;;;;;;;6.43;4.30;;;16.90;99.90;;;;;;5116865;28;20433;-44
2023/08/02 08:00:19;;;;;;;5.10;4.57;;;17.10;99.90;;;;;;5116900;28;20195;-43
2023/08/02 08:02:45;;;;;;;6.00;4.93;;;17.30;99.90;;;;;;5118375;28;20211;-45
2023/08/02 08:05:10;;;;;;;4.53;3.70;;;17.40;99.90;;;;;;5117961;28;20768;-43
2023/08/02 08:07:36;;;;;;;4.50;3.80;;;17.40;99.90;;;;;;5117856;28;20227;-44
2023/08/02 08:10:02;;;;;;;5.23;4.73;;;17.40;99.90;;;;;;5117434;28;20188;-43
2023/08/02 08:12:27;;;;;;;6.37;3.97;;;17.40;99.90;;;;;;5116443;28;20196;-42
2023/08/02 08:14:53;;;;;;;5.13;4.63;;;17.40;99.90;;;;;;5115435;28;20507;-43
2023/08/02 08:17:18;;;;;;;5.07;4.23;;;17.50;99.90;;;;;;5097010;28;20738;-44
2023/08/02 08:19:44;;;;;;;5.30;4.30;;;17.50;99.90;;;;;;5114696;28;20253;-45
2023/08/02 08:22:10;;;;;;;6.10;4.67;;;17.40;99.90;;;;;;5112941;28;20553;-44
2023/08/02 08:24:35;;;;;;;4.70;4.20;;;17.40;99.90;;;;;;5114352;28;20264;-44
2023/08/02 08:27:01;;;;;;;3.67;3.33;;;17.50;99.90;;;;;;5116802;28;20188;-45
2023/08/02 08:29:27;;;;;;;4.87;4.30;;;17.60;99.90;;;;;;5115761;28;20184;-43
2023/08/02 08:31:53;;;;;;;4.13;3.73;;;17.50;99.90;;;;;;5114727;28;20188;-44
2023/08/02 08:34:19;;;;;;;4.33;3.93;;;17.50;99.90;;;;;;5115545;28;20421;-45
2023/08/02 08:36:45;;;;;;;4.80;3.90;;;17.60;99.90;;;;;;5115815;28;20438;-44
2023/08/02 08:39:11;;;;;;;5.00;3.87;;;17.70;99.90;;;;;;5116287;28;20184;-44
2023/08/02 08:41:36;;;;;;;4.50;4.00;;;17.70;99.90;;;;;;5115772;28;20492;-46
2023/08/02 08:44:03;;;;;;;5.27;4.13;;;17.70;99.90;;;;;;5115414;28;20477;-44
2023/08/02 08:46:33;;;;;;;5.87;4.50;;;17.80;99.90;;;;;;5114834;28;20295;-45
2023/08/02 08:49:00;;;;;;;4.90;4.40;;;17.90;99.90;;;;;;5097968;28;20438;-43
2023/08/02 08:51:27;;;;;;;4.50;4.07;;;17.90;99.90;;;;;;5098079;28;20437;-44
2023/08/02 08:53:53;;;;;;;4.30;3.80;;;17.90;99.90;;;;;;5115021;28;20410;-43
2023/08/02 08:56:24;;;;;;;4.53;4.03;;;17.90;99.90;;;;;;5096591;28;20414;-44
2023/08/02 08:58:50;;;;;;;6.13;3.40;;;17.80;99.90;;;;;;5113467;28;20871;-44
2023/08/02 09:01:16;;;;;;;4.13;3.73;;;17.70;99.90;;;;;;5096017;28;20447;-43
2023/08/02 09:03:44;;;;;;;7.90;4.27;;;17.80;99.90;;;;;;5114477;28;20481;-43
2023/08/02 09:06:09;;;;;;;5.03;4.53;;;17.80;99.90;;;;;;5095391;28;20188;-44
2023/08/02 09:08:43;;;;;;;4.63;4.20;;;17.80;99.90;;;;;;5114816;28;20474;-44
2023/08/02 09:11:09;;;;;;;4.40;3.80;;;17.70;99.90;;;;;;5094650;28;20200;-43
2023/08/02 09:13:34;;;;;;;4.47;4.07;;;17.70;99.90;;;;;;5112650;28;20436;-46
2023/08/02 09:16:14;;;;;;;4.80;4.37;;;17.70;99.90;;;;;;5114384;28;20433;-44
2023/08/02 09:18:41;;;;;;;4.87;4.37;;;17.90;99.90;;;;;;5114326;28;20179;-45
2023/08/02 09:21:09;;;;;;;5.33;4.70;;;18.00;99.90;;;;;;5114226;28;20483;-42
2023/08/02 09:23:35;;;;;;;5.77;4.53;;;18.20;99.90;;;;;;5095886;28;20920;-44
2023/08/02 09:26:15;;;;;;;4.50;4.10;;;18.40;99.90;;;;;;5114364;28;20422;-43
2023/08/02 09:28:41;;;;;;;4.70;4.27;;;18.40;99.90;;;;;;5113694;28;20214;-44
2023/08/02 09:31:17;;;;;;;5.00;4.50;;;18.80;99.90;;;;;;5079249;28;20726;-43
2023/08/02 09:33:53;;;;;;;5.60;4.90;;;19.10;55.40;;;;;;5112881;28;20433;-46
2023/08/02 09:36:25;;;;;;;6.70;5.03;;;19.30;1.00;;;;;;5094734;28;20519;-45
2023/08/02 09:38:55;;;;;;;4.40;4.00;;;19.30;1.00;;;;;;5114692;28;20528;-44
2023/08/02 09:41:24;;;;;;;8.50;4.73;;;19.30;1.00;;;;;;5112522;28;20482;-47
2023/08/02 09:43:51;;;;;;;7.90;4.43;;;18.90;1.00;;;;;;5112993;28;20479;-49
2023/08/02 09:46:31;;;;;;;5.30;4.60;;;18.90;63.00;;;;;;5113071;28;20520;-44
2023/08/02 09:49:00;;;;;;;5.20;4.70;;;18.80;99.90;;;;;;5114392;28;20467;-43
2023/08/02 09:51:40;;;;;;;6.07;4.90;;;19.00;99.90;;;;;;5112767;28;20446;-44
2023/08/02 09:54:06;;;;;;;5.47;4.47;;;19.10;1.00;;;;;;5115173;28;20740;-45
2023/08/02 09:56:34;;;;;;;4.83;4.23;;;19.00;77.10;;;;;;5095933;28;20414;-43
2023/08/02 09:59:01;;;;;;;5.77;5.07;;;19.20;36.20;;;;;;5095476;28;20455;-43
2023/08/02 10:01:28;;;;;;;5.23;4.73;;;19.50;1.00;;;;;;5112983;28;20816;-44
2023/08/02 10:03:57;;;;;;;7.27;5.10;;;19.40;1.00;;;;;;5095195;28;20724;-44
2023/08/02 10:06:45;;;;;;;5.97;5.17;;;19.30;1.00;;;;;;5114599;28;20700;-43
2023/08/02 10:09:15;;;;;;;5.47;4.97;;;19.20;1.00;;;;;;5115292;28;20425;-43
2023/08/02 10:11:45;;;;;;;6.20;5.17;;;19.10;1.00;;;;;;5095491;28;20422;-43
2023/08/02 10:14:11;;;;;;;5.33;4.57;;;19.10;1.00;;;;;;5113223;28;20433;-44
2023/08/02 10:16:37;;;;;;;6.73;5.83;;;18.90;55.10;;;;;;5095152;28;20440;-46
2023/08/02 10:19:04;;;;;;;6.83;5.20;;;18.70;99.90;;;;;;5095311;28;20429;-44
2023/08/02 10:21:33;;;;;;;6.23;5.37;;;18.60;99.90;;;;;;5114381;28;20433;-47
2023/08/02 10:23:59;;;;;;;6.27;4.77;;;18.50;99.90;;;;;;5112946;28;20457;-42
2023/08/02 10:26:25;;;;;;;6.70;5.43;;;18.50;99.90;;;;;;5113872;28;20405;-46
2023/08/02 10:28:51;;;;;;;6.07;4.70;;;18.60;99.90;;;;;;5113736;28;20456;-44
2023/08/02 10:31:17;;;;;;;6.23;5.63;;;18.50;99.90;;;;;;5094634;28;20204;-43
2023/08/02 10:33:43;;;;;;;7.33;6.30;;;18.50;99.90;;;;;;5094572;28;20842;-44
2023/08/02 10:36:09;;;;;;;5.73;5.13;;;18.70;99.90;;;;;;5112032;28;20232;-43
2023/08/02 10:38:44;;;;;;;6.03;5.43;;;18.80;37.40;;;;;;5113551;28;20267;-46
2023/08/02 10:41:22;;;;;;;5.37;4.87;;;19.00;4.20;;;;;;5113570;28;20441;-46
2023/08/02 10:43:53;;;;;;;5.37;4.57;;;19.20;1.80;;;;;;5113509;28;20472;-42
2023/08/02 10:46:29;;;;;;;5.37;4.83;;;19.30;1.00;;;;;;5114454;28;21027;-44
2023/08/02 10:49:18;;;;;;;6.07;4.57;;;19.40;1.00;;;;;;5113185;28;20417;-46
2023/08/02 10:51:45;;;;;;;5.40;4.73;;;19.70;1.00;;;;;;5097291;28;20418;-45
2023/08/02 10:54:21;;;;;;;6.43;5.00;;;20.40;99.90;;;;;;5079024;28;20521;-44
2023/08/02 10:56:53;;;;;;;6.03;5.37;;;21.30;1.00;;;;;;5112204;28;20505;-44
2023/08/02 10:59:25;;;;;;;8.80;5.60;;;22.90;1.00;;;;;;5112915;28;20753;-44
2023/08/02 11:01:56;;;;;;;5.70;5.20;;;22.90;99.90;;;;;;5112364;28;20650;-43
2023/08/02 11:04:23;;;;;;;6.20;5.60;;;22.60;99.90;;;;;;5096046;28;20505;-43
2023/08/02 11:06:48;;;;;;;6.27;5.10;;;22.00;1.00;;;;;;5096911;28;20504;-44
2023/08/02 11:09:14;;;;;;;4.67;4.23;;;21.40;99.90;;;;;;5113981;28;20458;-44
2023/08/02 11:11:39;;;;;;;6.87;5.67;;;21.30;1.00;;;;;;5114261;28;20181;-45
2023/08/02 11:14:05;;;;;;;6.43;5.20;;;21.60;1.00;;;;;;5077794;28;20524;-49
2023/08/02 11:16:37;;;;;;;5.87;5.30;;;21.50;99.90;;;;;;5113576;28;20210;-45
2023/08/02 11:19:09;;;;;;;6.83;6.03;;;21.10;1.00;;;;;;5114021;28;20298;-45
2023/08/02 11:21:34;;;;;;;6.23;5.40;;;21.10;99.90;;;;;;5112411;28;20820;-45
2023/08/02 11:24:00;;;;;;;6.10;5.50;;;21.10;99.90;;;;;;5110397;28;20743;-43
2023/08/02 11:26:26;;;;;;;5.97;4.70;;;21.20;99.90;;;;;;5112439;28;20211;-45
2023/08/02 11:28:53;;;;;;;5.50;4.83;;;21.50;39.80;;;;;;5112295;28;20896;-46
2023/08/02 11:31:22;;;;;;;6.23;4.60;;;21.90;1.00;;;;;;5111951;28;20289;-43
2023/08/02 11:33:48;;;;;;;6.47;5.77;;;22.20;99.90;;;;;;5109229;28;20581;-46
2023/08/02 11:36:14;;;;;;;6.87;5.87;;;22.80;1.00;;;;;;5110257;28;20783;-44
2023/08/02 11:38:39;;;;;;;5.93;5.00;;;23.40;1.00;;;;;;5110099;28;20175;-44
2023/08/02 11:41:16;;;;;;;6.17;5.10;;;24.30;99.90;;;;;;5093078;28;20184;-47
2023/08/02 11:43:42;;;;;;;6.77;4.97;;;24.70;1.00;;;;;;5112363;28;20589;-45
2023/08/02 11:46:21;;;;;;;5.30;4.63;;;24.60;99.90;;;;;;5093322;28;20745;-45
2023/08/02 11:48:47;;;;;;;8.00;4.90;;;24.60;1.00;;;;;;5097878;28;20440;-45
2023/08/02 11:51:15;;;;;;;5.77;5.10;;;24.70;1.00;;;;;;5116602;28;20421;-44
2023/08/02 11:54:07;;;;;;;5.50;4.43;;;24.90;99.90;;;;;;5114025;28;20501;-45
2023/08/02 11:56:33;;;;;;;6.13;5.40;;;25.60;99.90;;;;;;5091872;28;20473;-44
2023/08/02 11:58:59;;;;;;;5.33;4.83;;;25.40;1.00;;;;;;5094469;28;20464;-43
2023/08/02 12:01:25;;;;;;;7.13;4.70;;;25.00;27.80;;;;;;5095697;28;20533;-44
2023/08/02 12:03:59;;;;;;;6.00;5.40;;;24.70;99.90;;;;;;5093894;28;20759;-43
2023/08/02 12:06:25;;;;;;;7.83;4.90;;;24.60;99.90;;;;;;5112745;28;20206;-47
2023/08/02 12:08:57;;;;;;;5.20;4.70;;;24.40;99.90;;;;;;5095235;28;20733;-50
2023/08/02 12:11:24;;;;;;;4.00;3.60;;;24.50;99.90;;;;;;5116649;28;20446;-49
2023/08/02 12:13:50;;;;;;;4.00;3.67;;;24.40;1.00;;;;;;5097077;28;20463;-49
2023/08/02 12:16:16;;;;;;;4.27;3.87;;;24.30;5.20;;;;;;5115312;28;20502;-48
2023/08/02 12:19:09;;;;;;;5.83;3.90;;;24.60;1.00;;;;;;5096051;28;20623;-53
2023/08/02 12:21:34;;;;;;;4.30;3.80;;;24.80;1.00;;;;;;5110927;28;20543;-48
2023/08/02 12:24:15;;;;;;;3.80;2.93;;;24.90;1.00;;;;;;5096751;28;20457;-48
2023/08/02 12:26:40;;;;;;;6.67;4.10;;;24.50;1.00;;;;;;5117267;28;20209;-49
2023/08/02 12:29:06;;;;;;;4.00;3.50;;;24.40;1.00;;;;;;5117244;28;20445;-47
2023/08/02 12:31:42;;;;;;;6.30;3.67;;;24.30;1.00;;;;;;5116779;28;20500;-49
2023/08/02 12:34:09;;;;;;;4.20;3.80;;;24.60;1.00;;;;;;5114234;28;20270;-49
2023/08/02 12:36:34;;;;;;;6.33;3.63;;;24.80;1.00;;;;;;5115185;28;20550;-48
2023/08/02 12:39:00;;;;;;;3.60;3.20;;;24.90;1.00;;;;;;5111792;28;20437;-47
2023/08/02 12:41:27;;;;;;;5.20;3.93;;;24.70;1.00;;;;;;5094926;28;20239;-46
2023/08/02 12:43:53;;;;;;;3.63;3.30;;;24.50;1.00;;;;;;5113380;28;20306;-48
2023/08/02 12:46:20;;;;;;;4.37;3.97;;;24.40;1.00;;;;;;5115807;28;20520;-50
2023/08/02 12:48:46;;;;;;;3.60;3.30;;;24.30;1.00;;;;;;5087167;28;20219;-46